createdAt,value
2023-05-22T00:02:08.499Z,1.88
2023-05-22T00:04:35.961Z,1.40
2023-05-22T00:07:04.091Z,1.58
2023-05-22T00:09:31.575Z,1.20
2023-05-22T00:11:59.463Z,1.38
2023-05-22T00:14:26.796Z,2.58
2023-05-22T00:16:55.824Z,1.50
2023-05-22T00:19:23.426Z,1.42
2023-05-22T00:21:51.660Z,1.40
2023-05-22T00:24:19.119Z,1.85
2023-05-22T00:26:46.458Z,1.40
2023-05-22T00:29:13.855Z,1.30
2023-05-22T00:31:41.222Z,1.48
2023-05-22T00:34:08.776Z,1.77
2023-05-22T00:36:36.237Z,1.60
2023-05-22T00:39:03.548Z,1.30
2023-05-22T00:41:34.426Z,1.60
2023-05-22T00:44:03.008Z,1.70
2023-05-22T00:46:31.454Z,1.58
2023-05-22T00:48:58.842Z,1.38
2023-05-22T00:51:26.588Z,1.38
2023-05-22T00:56:22.866Z,1.23
2023-05-22T00:58:50.994Z,1.33
2023-05-22T01:01:18.681Z,1.20
2023-05-22T01:03:47.210Z,1.70
2023-05-22T01:06:16.276Z,1.30
2023-05-22T01:08:44.759Z,1.38
2023-05-22T01:11:22.511Z,1.40
2023-05-22T01:14:08.683Z,1.40
2023-05-22T01:16:46.997Z,1.42
2023-05-22T01:19:47.849Z,1.40
2023-05-22T01:22:36.800Z,1.80
2023-05-22T01:25:26.881Z,1.30
2023-05-22T01:28:03.383Z,1.33
2023-05-22T01:30:42.973Z,1.42
2023-05-22T01:33:14.249Z,1.20
2023-05-22T01:35:43.805Z,1.13
2023-05-22T01:38:12.703Z,1.20
2023-05-22T01:40:41.141Z,1.45
2023-05-22T01:43:08.749Z,1.50
2023-05-22T01:45:36.231Z,1.55
2023-05-22T01:48:03.592Z,1.50
2023-05-22T01:50:31.253Z,1.52
2023-05-22T01:55:51.283Z,1.73
2023-05-22T01:58:26.560Z,1.40
2023-05-22T02:00:56.843Z,2.10
2023-05-22T02:03:30.568Z,1.90
2023-05-22T02:06:02.248Z,1.95
2023-05-22T02:08:31.149Z,2.38
2023-05-22T02:11:00.636Z,2.00
2023-05-22T02:13:28.781Z,2.72
2023-05-22T02:15:58.619Z,2.90
2023-05-22T02:18:31.328Z,3.03
2023-05-22T02:20:59.492Z,3.10
2023-05-22T02:23:29.985Z,3.10
2023-05-22T02:25:57.582Z,3.92
2023-05-22T02:28:25.065Z,3.97
2023-05-22T02:30:52.436Z,2.50
2023-05-22T02:33:19.861Z,2.53
2023-05-22T02:35:49.720Z,2.45
2023-05-22T02:38:17.088Z,2.92
2023-05-22T02:40:45.376Z,2.80
2023-05-22T02:43:12.780Z,3.17
2023-05-22T02:45:40.269Z,3.33
2023-05-22T02:48:07.723Z,3.10
2023-05-22T02:50:35.363Z,2.90
2023-05-22T02:53:02.743Z,2.60
2023-05-22T02:55:30.144Z,2.47
2023-05-22T02:57:57.427Z,2.45
2023-05-22T03:00:25.843Z,2.53
2023-05-22T03:02:55.486Z,3.17
2023-05-22T03:05:23.482Z,2.67
2023-05-22T03:07:53.104Z,2.67
2023-05-22T03:10:20.658Z,2.58
2023-05-22T03:15:16.264Z,2.72
2023-05-22T03:17:45.098Z,2.50
2023-05-22T03:20:22.268Z,2.70
2023-05-22T03:22:49.682Z,2.58
2023-05-22T03:25:17.330Z,2.53
2023-05-22T03:27:45.004Z,2.92
2023-05-22T03:30:14.243Z,3.10
2023-05-22T03:32:49.072Z,3.00
2023-05-22T03:35:19.965Z,2.60
2023-05-22T03:37:47.635Z,2.92
2023-05-22T03:40:15.958Z,2.85
2023-05-22T03:45:11.899Z,3.28
2023-05-22T03:47:39.524Z,2.85
2023-05-22T03:50:07.554Z,3.80
2023-05-22T03:52:35.116Z,3.38
2023-05-22T03:55:05.500Z,2.70
2023-05-22T03:57:32.925Z,2.83
2023-05-22T04:00:07.411Z,2.92
2023-05-22T04:02:45.418Z,3.30
2023-05-22T04:05:13.738Z,3.33
2023-05-22T04:07:41.560Z,3.28
2023-05-22T04:12:36.542Z,3.38
2023-05-22T04:15:04.274Z,3.97
2023-05-22T04:17:34.268Z,3.30
2023-05-22T04:20:01.825Z,3.75
2023-05-22T04:22:31.185Z,4.60
2023-05-22T04:24:58.485Z,5.43
2023-05-22T04:27:26.813Z,3.80
2023-05-22T04:29:54.235Z,4.60
2023-05-22T04:32:24.370Z,4.43
2023-05-22T04:34:51.856Z,4.13
2023-05-22T04:37:20.571Z,4.78
2023-05-22T04:39:53.126Z,3.35
2023-05-22T04:42:20.802Z,4.20
2023-05-22T04:44:48.624Z,3.22
2023-05-22T04:47:16.270Z,2.45
2023-05-22T04:49:45.926Z,2.33
2023-05-22T04:52:14.296Z,2.67
2023-05-22T04:54:43.811Z,2.58
2023-05-22T04:57:11.538Z,2.33
2023-05-22T04:59:42.307Z,2.30
2023-05-22T05:02:12.061Z,2.50
2023-05-22T05:04:41.296Z,2.10
2023-05-22T05:07:09.628Z,2.22
2023-05-22T05:09:38.075Z,2.53
2023-05-22T05:12:08.316Z,2.58
2023-05-22T05:14:36.691Z,3.38
2023-05-22T05:17:05.045Z,4.68
2023-05-22T05:19:37.158Z,4.47
2023-05-22T05:22:09.744Z,4.13
2023-05-22T05:24:38.473Z,4.13
2023-05-22T05:27:06.554Z,3.28
2023-05-22T05:29:37.115Z,3.10
2023-05-22T05:32:22.561Z,2.85
2023-05-22T05:35:28.904Z,2.22
2023-05-22T05:38:08.177Z,2.50
2023-05-22T05:40:38.527Z,3.40
2023-05-22T05:43:09.302Z,3.08
2023-05-22T05:45:37.420Z,3.13
2023-05-22T05:48:05.482Z,3.20
2023-05-22T05:50:34.593Z,4.45
2023-05-22T05:53:02.317Z,3.78
2023-05-22T05:58:00.441Z,3.60
2023-05-22T06:00:42.968Z,3.78
2023-05-22T06:03:10.774Z,3.20
2023-05-22T06:05:52.438Z,2.80
2023-05-22T06:08:59.981Z,2.92
2023-05-22T06:11:34.066Z,2.83
2023-05-22T06:14:05.719Z,3.10
2023-05-22T06:16:34.466Z,2.40
2023-05-22T06:19:07.889Z,2.47
2023-05-22T06:21:35.920Z,2.55
2023-05-22T06:24:04.100Z,2.78
2023-05-22T06:26:33.872Z,4.10
2023-05-22T06:29:02.382Z,3.45
2023-05-22T06:31:35.689Z,2.20
2023-05-22T06:34:04.219Z,3.28
2023-05-22T06:36:32.138Z,2.83
2023-05-22T06:41:46.433Z,3.22
2023-05-22T06:44:15.429Z,3.15
2023-05-22T06:46:43.088Z,2.20
2023-05-22T06:49:19.434Z,2.00
2023-05-22T06:51:59.713Z,1.95
2023-05-22T06:54:31.928Z,2.15
2023-05-22T06:57:02.505Z,1.90
2023-05-22T06:59:32.922Z,1.90
2023-05-22T07:02:15.871Z,2.75
2023-05-22T07:05:05.794Z,1.90
2023-05-22T07:07:53.254Z,2.15
2023-05-22T07:10:30.729Z,2.17
2023-05-22T07:13:07.264Z,1.90
2023-05-22T07:15:35.647Z,1.90
2023-05-22T07:18:06.085Z,1.85
2023-05-22T07:20:33.727Z,2.28
2023-05-22T07:23:10.950Z,2.28
2023-05-22T07:25:43.328Z,2.00
2023-05-22T07:28:12.541Z,2.20
2023-05-22T07:30:55.959Z,1.95
2023-05-22T07:33:26.274Z,2.10
2023-05-22T07:35:57.010Z,1.88
2023-05-22T07:38:25.814Z,2.10
2023-05-22T07:41:00.678Z,2.00
2023-05-22T07:43:30.938Z,2.55
2023-05-22T07:46:02.518Z,2.42
2023-05-22T07:48:41.038Z,2.03
2023-05-22T07:51:09.719Z,2.08
2023-05-22T07:53:47.787Z,2.05
2023-05-22T07:56:24.754Z,1.90
2023-05-22T07:59:03.702Z,1.83
2023-05-22T08:01:39.392Z,1.75
2023-05-22T08:04:12.731Z,1.95
2023-05-22T08:06:41.489Z,1.85
2023-05-22T08:09:11.214Z,2.25
2023-05-22T08:11:43.330Z,1.90
2023-05-22T08:14:12.753Z,2.58
2023-05-22T08:16:42.946Z,2.53
2023-05-22T08:19:11.176Z,2.25
2023-05-22T08:21:39.890Z,2.10
2023-05-22T08:24:08.830Z,2.03
2023-05-22T08:26:43.086Z,2.28
2023-05-22T08:29:14.643Z,2.35
2023-05-22T08:31:43.242Z,2.03
2023-05-22T08:34:11.678Z,2.78
2023-05-22T08:36:39.870Z,2.38
2023-05-22T08:39:08.186Z,2.38
2023-05-22T08:41:36.055Z,2.03
2023-05-22T08:44:05.373Z,2.53
2023-05-22T08:46:39.244Z,2.83
2023-05-22T08:49:09.372Z,2.53
2023-05-22T08:51:58.507Z,2.20
2023-05-22T08:57:20.031Z,2.60
2023-05-22T08:59:48.875Z,3.75
2023-05-22T09:02:17.871Z,2.50
2023-05-22T09:04:45.458Z,2.50
2023-05-22T09:07:15.236Z,2.58
2023-05-22T09:09:46.027Z,2.38
2023-05-22T09:12:16.394Z,2.30
2023-05-22T09:14:46.086Z,1.90
2023-05-22T09:17:18.501Z,1.98
2023-05-22T09:19:46.733Z,2.65
2023-05-22T09:22:14.901Z,2.50
2023-05-22T09:24:43.855Z,2.70
2023-05-22T09:27:12.259Z,2.80
2023-05-22T09:29:55.729Z,2.40
2023-05-22T09:32:24.507Z,2.67
2023-05-22T09:34:52.308Z,2.53
2023-05-22T09:37:20.933Z,2.80
2023-05-22T09:40:11.780Z,2.83
2023-05-22T09:42:47.992Z,2.85
2023-05-22T09:45:24.590Z,3.20
2023-05-22T09:47:53.507Z,2.42
2023-05-22T09:50:21.107Z,3.10
2023-05-22T09:52:53.083Z,2.47
2023-05-22T09:55:31.985Z,2.45
2023-05-22T09:58:03.673Z,1.80
2023-05-22T10:00:34.560Z,2.58
2023-05-22T10:03:16.248Z,2.17
2023-05-22T10:05:50.979Z,2.28
2023-05-22T10:08:28.968Z,1.77
2023-05-22T10:10:58.994Z,1.63
2023-05-22T10:13:28.230Z,1.92
2023-05-22T10:16:29.658Z,1.63
2023-05-22T10:18:58.314Z,1.85
2023-05-22T10:21:26.056Z,1.65
2023-05-22T10:23:55.209Z,1.77
2023-05-22T10:26:23.453Z,1.50
2023-05-22T10:29:01.382Z,1.85
2023-05-22T10:32:07.158Z,1.70
2023-05-22T10:35:03.065Z,1.88
2023-05-22T10:37:50.215Z,1.88
2023-05-22T10:40:29.210Z,1.80
2023-05-22T10:43:01.114Z,1.83
2023-05-22T10:45:37.167Z,2.20
2023-05-22T10:48:06.454Z,1.60
2023-05-22T10:50:35.216Z,1.75
2023-05-22T10:53:24.065Z,1.48
2023-05-22T10:55:58.773Z,1.60
2023-05-22T10:58:31.485Z,1.73
2023-05-22T11:01:14.274Z,1.70
2023-05-22T11:03:55.530Z,2.20
2023-05-22T11:06:42.462Z,2.00
2023-05-22T11:09:29.912Z,1.45
2023-05-22T11:12:28.996Z,2.00
2023-05-22T11:15:11.188Z,2.50
2023-05-22T11:17:39.673Z,2.10
2023-05-22T11:20:30.866Z,1.80
2023-05-22T11:23:05.765Z,1.95
2023-05-22T11:25:36.792Z,2.20
2023-05-22T11:28:06.649Z,2.13
2023-05-22T11:30:35.166Z,2.00
2023-05-22T11:33:03.429Z,2.10
2023-05-22T11:35:31.498Z,1.77
2023-05-22T11:37:59.452Z,2.08
2023-05-22T11:40:46.144Z,1.88
2023-05-22T11:43:13.571Z,1.75
2023-05-22T11:45:40.931Z,2.50
2023-05-22T11:50:42.228Z,1.90
2023-05-22T11:53:11.087Z,2.10
2023-05-22T11:55:39.814Z,1.83
2023-05-22T11:58:07.731Z,1.90
2023-05-22T12:00:35.583Z,2.20
2023-05-22T12:03:03.440Z,1.90
2023-05-22T12:05:34.606Z,1.98
2023-05-22T12:08:01.992Z,2.00
2023-05-22T12:10:30.345Z,1.90
2023-05-22T12:12:57.965Z,1.95
2023-05-22T12:15:25.788Z,1.83
2023-05-22T12:17:56.447Z,1.92
2023-05-22T12:20:30.257Z,2.15
2023-05-22T12:22:59.741Z,2.05
2023-05-22T12:25:36.502Z,1.80
2023-05-22T12:28:05.902Z,2.20
2023-05-22T12:30:42.952Z,1.65
2023-05-22T12:33:14.832Z,2.05
2023-05-22T12:35:42.314Z,1.50
2023-05-22T12:40:38.956Z,1.70
2023-05-22T12:43:06.492Z,2.05
2023-05-22T12:45:33.901Z,2.08
2023-05-22T12:48:01.281Z,1.77
2023-05-22T12:50:29.761Z,1.70
2023-05-22T12:52:58.191Z,1.67
2023-05-22T12:55:25.686Z,1.33
2023-05-22T13:00:21.735Z,1.80
2023-05-22T13:02:49.813Z,1.80
2023-05-22T13:05:17.967Z,1.48
2023-05-22T13:07:45.736Z,1.70
2023-05-22T13:12:42.072Z,1.80
2023-05-22T13:15:11.778Z,1.60
2023-05-22T13:17:39.493Z,1.98
2023-05-22T13:22:35.095Z,1.52
2023-05-22T13:25:02.439Z,1.70
2023-05-22T13:27:33.704Z,1.83
2023-05-22T13:30:03.796Z,1.73
2023-05-22T13:32:34.641Z,1.55
2023-05-22T13:35:02.511Z,1.70
2023-05-22T13:37:32.315Z,1.40
2023-05-22T13:39:59.850Z,1.60
2023-05-22T13:42:30.100Z,1.95
2023-05-22T13:44:57.716Z,2.05
2023-05-22T13:49:53.919Z,1.40
2023-05-22T13:52:22.018Z,1.75
2023-05-22T13:54:50.657Z,1.52
2023-05-22T13:57:18.962Z,1.63
2023-05-22T13:59:46.490Z,1.50
2023-05-22T14:02:14.221Z,1.40
2023-05-22T14:07:09.029Z,1.70
2023-05-22T14:09:36.766Z,1.70
2023-05-22T14:12:04.513Z,1.70
2023-05-22T14:14:32.041Z,1.60
2023-05-22T14:16:59.751Z,1.40
2023-05-22T14:19:28.599Z,1.50
2023-05-22T14:21:58.571Z,1.55
2023-05-22T14:24:26.310Z,2.00
2023-05-22T14:26:58.208Z,1.60
2023-05-22T14:29:26.212Z,1.70
2023-05-22T14:31:55.753Z,1.85
2023-05-22T14:34:23.236Z,2.45
2023-05-22T14:36:50.654Z,2.40
2023-05-22T14:39:18.021Z,2.17
2023-05-22T14:41:45.466Z,2.55
2023-05-22T14:46:40.303Z,3.38
2023-05-22T14:49:10.153Z,4.40
2023-05-22T14:51:37.493Z,2.88
2023-05-22T14:54:06.089Z,2.85
2023-05-22T14:56:33.593Z,2.83
2023-05-22T14:59:00.938Z,2.50
2023-05-22T15:01:28.317Z,2.70
2023-05-22T15:03:55.730Z,2.75
2023-05-22T15:06:23.059Z,2.95
2023-05-22T15:08:50.404Z,2.80
2023-05-22T15:11:17.711Z,2.60
2023-05-22T15:13:45.060Z,2.97
2023-05-22T15:16:12.368Z,2.95
2023-05-22T15:18:40.212Z,3.30
2023-05-22T15:21:07.684Z,3.10
2023-05-22T15:23:35.031Z,3.63
2023-05-22T15:26:02.497Z,3.58
2023-05-22T15:28:29.817Z,3.67
2023-05-22T15:30:58.434Z,3.50
2023-05-22T15:33:25.895Z,3.80
2023-05-22T15:35:53.360Z,3.80
2023-05-22T15:38:21.620Z,3.75
2023-05-22T15:40:50.079Z,3.83
2023-05-22T15:43:17.538Z,3.78
2023-05-22T15:45:49.155Z,3.83
2023-05-22T15:48:17.106Z,3.85
2023-05-22T15:50:44.684Z,3.70
2023-05-22T15:53:12.140Z,4.03
2023-05-22T15:55:39.637Z,3.60
2023-05-22T15:58:08.121Z,3.22
2023-05-22T16:00:41.480Z,3.28
2023-05-22T16:03:10.055Z,3.38
2023-05-22T16:05:39.480Z,3.90
2023-05-22T16:08:07.747Z,3.67
2023-05-22T16:10:35.115Z,3.80
2023-05-22T16:13:05.564Z,4.28
2023-05-22T16:15:34.462Z,4.90
2023-05-22T16:18:01.845Z,5.70
2023-05-22T16:20:29.247Z,6.43
2023-05-22T16:22:56.637Z,6.93
2023-05-22T16:25:24.043Z,7.93
2023-05-22T16:27:51.418Z,6.45
2023-05-22T16:30:18.822Z,6.72
2023-05-22T16:32:46.880Z,6.57
2023-05-22T16:35:17.130Z,5.75
2023-05-22T16:37:44.491Z,6.45
2023-05-22T16:40:12.196Z,7.60
2023-05-22T16:42:39.678Z,8.23
2023-05-22T16:45:07.871Z,8.70
2023-05-22T16:47:37.507Z,9.35
2023-05-22T16:50:05.435Z,12.30
2023-05-22T16:52:34.281Z,11.10
2023-05-22T16:55:01.728Z,8.85
2023-05-22T16:57:31.884Z,7.95
2023-05-22T16:59:59.282Z,7.20
2023-05-22T17:02:26.688Z,6.35
2023-05-22T17:04:54.752Z,8.25
2023-05-22T17:07:22.052Z,7.50
2023-05-22T17:09:49.463Z,8.60
2023-05-22T17:12:16.835Z,8.25
2023-05-22T17:14:44.306Z,8.38
2023-05-22T17:17:11.629Z,8.32
2023-05-22T17:19:39.043Z,8.13
2023-05-22T17:22:06.582Z,8.02
2023-05-22T17:24:34.319Z,8.00
2023-05-22T17:27:03.631Z,7.80
2023-05-22T17:29:31.142Z,7.90
2023-05-22T17:31:58.664Z,8.35
2023-05-22T17:34:26.571Z,7.35
2023-05-22T17:36:53.920Z,7.45
2023-05-22T17:39:22.111Z,6.78
2023-05-22T17:41:49.630Z,7.00
2023-05-22T17:44:16.964Z,6.75
2023-05-22T17:46:44.366Z,6.63
2023-05-22T17:49:11.806Z,6.75
2023-05-22T17:51:39.186Z,6.63
2023-05-22T17:54:08.308Z,7.20
2023-05-22T17:56:37.262Z,10.35
2023-05-22T17:59:07.541Z,13.75
2023-05-22T18:01:35.836Z,14.48
2023-05-22T18:04:05.176Z,9.30
2023-05-22T18:06:32.804Z,6.80
2023-05-22T18:09:02.420Z,7.07
2023-05-22T18:11:29.826Z,7.20
2023-05-22T18:13:57.173Z,5.40
2023-05-22T18:16:24.547Z,5.90
2023-05-22T18:18:52.021Z,6.57
2023-05-22T18:21:19.361Z,6.05
2023-05-22T18:23:46.939Z,6.15
2023-05-22T18:26:14.473Z,6.25
2023-05-22T18:28:42.873Z,6.50
2023-05-22T18:31:10.357Z,6.82
2023-05-22T18:33:39.457Z,6.80
2023-05-22T18:36:06.989Z,7.07
2023-05-22T18:41:01.802Z,6.97
2023-05-22T18:43:29.605Z,6.55
2023-05-22T18:48:25.708Z,6.32
2023-05-22T18:50:53.379Z,5.90
2023-05-22T18:53:22.720Z,6.47
2023-05-22T18:55:50.002Z,6.15
2023-05-22T18:58:17.264Z,6.63
2023-05-22T19:00:45.474Z,7.32
2023-05-22T19:03:12.986Z,8.95
2023-05-22T19:05:40.437Z,9.65
2023-05-22T19:08:07.895Z,8.40
2023-05-22T19:10:35.288Z,7.38
2023-05-22T19:13:02.681Z,7.75
2023-05-22T19:15:30.083Z,7.82
2023-05-22T19:17:57.845Z,6.80
2023-05-22T19:22:52.463Z,6.70
2023-05-22T19:25:20.237Z,5.32
2023-05-22T19:27:48.307Z,4.70
2023-05-22T19:30:16.722Z,4.88
2023-05-22T19:32:44.087Z,4.63
2023-05-22T19:35:11.639Z,4.60
2023-05-22T19:37:39.043Z,4.45
2023-05-22T19:40:07.377Z,4.45
2023-05-22T19:42:34.956Z,4.18
2023-05-22T19:45:03.665Z,4.40
2023-05-22T19:47:32.537Z,4.05
2023-05-22T19:49:59.868Z,4.00
2023-05-22T19:52:27.314Z,3.45
2023-05-22T19:54:55.885Z,3.10
2023-05-22T19:57:23.344Z,3.63
2023-05-22T19:59:51.466Z,3.63
2023-05-22T20:02:19.334Z,3.42
2023-05-22T20:04:48.727Z,3.40
2023-05-22T20:07:16.341Z,3.45
2023-05-22T20:09:43.896Z,3.58
2023-05-22T20:12:11.303Z,2.42
2023-05-22T20:14:38.975Z,3.28
2023-05-22T20:19:34.867Z,3.40
2023-05-22T20:22:02.553Z,3.42
2023-05-22T20:24:29.991Z,3.33
2023-05-22T20:26:57.906Z,3.50
2023-05-22T20:29:25.294Z,3.90
2023-05-22T20:31:54.974Z,3.90
2023-05-22T20:34:23.820Z,3.95
2023-05-22T20:36:53.166Z,4.40
2023-05-22T20:39:21.031Z,4.10
2023-05-22T20:41:51.716Z,3.60
2023-05-22T20:44:19.451Z,3.35
2023-05-22T20:49:14.122Z,4.05
2023-05-22T20:51:41.449Z,3.38
2023-05-22T20:54:08.973Z,3.80
2023-05-22T20:56:41.170Z,3.50
2023-05-22T20:59:09.266Z,3.33
2023-05-22T21:01:36.876Z,3.58
2023-05-22T21:04:04.390Z,3.53
2023-05-22T21:06:31.950Z,3.83
2023-05-22T21:09:01.821Z,3.80
2023-05-22T21:11:29.322Z,4.13
2023-05-22T21:13:56.645Z,3.97
2023-05-22T21:16:24.771Z,3.83
2023-05-22T21:18:52.138Z,3.25
2023-05-22T21:21:22.230Z,3.45
2023-05-22T21:23:50.060Z,3.55
2023-05-22T21:26:17.496Z,4.00
2023-05-22T21:28:44.926Z,3.47
2023-05-22T21:31:12.678Z,3.90
2023-05-22T21:33:40.200Z,4.07
2023-05-22T21:36:07.651Z,4.10
2023-05-22T21:38:35.034Z,4.18
2023-05-22T21:41:02.356Z,3.92
2023-05-22T21:43:29.688Z,3.28
2023-05-22T21:45:56.956Z,3.28
2023-05-22T21:48:24.223Z,3.35
2023-05-22T21:50:51.661Z,3.83
2023-05-22T21:53:19.020Z,3.38
2023-05-22T21:55:46.386Z,3.22
2023-05-22T21:58:13.900Z,3.20
2023-05-22T22:00:41.559Z,4.05
2023-05-22T22:03:09.180Z,3.80
2023-05-22T22:05:37.059Z,3.58
2023-05-22T22:08:05.375Z,4.03
2023-05-22T22:10:32.652Z,4.03
2023-05-22T22:12:59.902Z,3.58
2023-05-22T22:15:27.249Z,4.20
2023-05-22T22:17:59.609Z,4.50
2023-05-22T22:20:39.915Z,4.32
2023-05-22T22:23:11.345Z,4.10
2023-05-22T22:25:39.432Z,4.55
2023-05-22T22:28:07.631Z,4.22
2023-05-22T22:30:35.587Z,4.22
2023-05-22T22:33:03.219Z,5.63
2023-05-22T22:35:30.976Z,7.07
2023-05-22T22:40:26.919Z,4.80
2023-05-22T22:42:54.621Z,4.40
2023-05-22T22:45:21.921Z,4.00
2023-05-22T22:47:49.182Z,3.97
2023-05-22T22:50:17.073Z,4.75
2023-05-22T22:52:47.811Z,4.15
2023-05-22T22:55:15.704Z,4.10
2023-05-22T22:57:44.869Z,3.28
2023-05-22T23:00:13.612Z,3.85
2023-05-22T23:02:41.130Z,3.60
2023-05-22T23:05:09.189Z,3.10
2023-05-22T23:07:36.618Z,3.65
2023-05-22T23:10:04.513Z,3.30
2023-05-22T23:12:35.551Z,3.70
2023-05-22T23:15:03.651Z,3.53
2023-05-22T23:17:33.029Z,3.65
2023-05-22T23:20:00.345Z,3.83
2023-05-22T23:22:27.674Z,3.20
2023-05-22T23:24:54.905Z,3.35
2023-05-22T23:27:22.256Z,3.97
2023-05-22T23:29:49.600Z,4.05
2023-05-22T23:32:16.890Z,3.88
2023-05-22T23:34:44.256Z,3.88
2023-05-22T23:37:11.484Z,4.35
2023-05-22T23:39:39.120Z,3.60
2023-05-22T23:42:10.056Z,3.58
2023-05-22T23:44:37.561Z,3.80
2023-05-22T23:47:05.627Z,3.75
2023-05-22T23:49:33.087Z,3.58
2023-05-22T23:52:00.810Z,3.90
2023-05-22T23:54:28.078Z,3.75
2023-05-22T23:56:55.346Z,3.55
2023-05-22T23:59:22.663Z,4.20
